createdAt,value
2023-04-13T00:00:37.047Z,48.62
2023-04-13T00:03:04.540Z,48.52
2023-04-13T00:05:31.602Z,47.51
2023-04-13T00:08:03.017Z,47.38
2023-04-13T00:10:31.537Z,47.23
2023-04-13T00:13:01.689Z,46.10
2023-04-13T00:15:28.322Z,46.37
2023-04-13T00:17:55.029Z,45.34
2023-04-13T00:20:21.691Z,45.19
2023-04-13T00:22:49.004Z,45.53
2023-04-13T00:25:16.164Z,45.58
2023-04-13T00:27:44.147Z,45.53
2023-04-13T00:30:14.559Z,45.73
2023-04-13T00:32:42.568Z,46.10
2023-04-13T00:35:09.997Z,45.83
2023-04-13T00:37:37.360Z,45.96
2023-04-13T00:40:06.299Z,46.18
2023-04-13T00:42:33.011Z,46.07
2023-04-13T00:44:59.610Z,46.17
2023-04-13T00:47:28.161Z,46.18
2023-04-13T00:50:00.385Z,45.86
2023-04-13T00:52:27.209Z,44.88
2023-04-13T00:54:56.521Z,45.12
2023-04-13T00:57:24.217Z,44.46
2023-04-13T00:59:52.780Z,44.37
2023-04-13T01:02:26.695Z,43.80
2023-04-13T01:04:56.185Z,43.74
2023-04-13T01:07:29.858Z,43.28
2023-04-13T01:10:05.579Z,42.12
2023-04-13T01:12:36.949Z,42.33
2023-04-13T01:15:03.534Z,42.31
2023-04-13T01:17:31.292Z,41.48
2023-04-13T01:20:16.435Z,41.54
2023-04-13T01:22:45.851Z,41.60
2023-04-13T01:25:17.827Z,41.41
2023-04-13T01:27:47.364Z,40.94
2023-04-13T01:30:19.647Z,40.95
2023-04-13T01:32:46.465Z,40.75
2023-04-13T01:35:13.599Z,40.67
2023-04-13T01:37:45.345Z,41.15
2023-04-13T01:40:12.979Z,41.34
2023-04-13T01:42:40.351Z,40.97
2023-04-13T01:45:10.674Z,41.12
2023-04-13T01:47:39.247Z,40.67
2023-04-13T01:50:15.778Z,40.56
2023-04-13T01:52:43.071Z,40.51
2023-04-13T01:55:12.501Z,40.49
2023-04-13T01:57:41.126Z,40.77
2023-04-13T02:00:11.119Z,40.48
2023-04-13T02:02:38.360Z,40.20
2023-04-13T02:05:05.249Z,40.29
2023-04-13T02:07:33.043Z,40.34
2023-04-13T02:09:59.732Z,40.19
2023-04-13T02:12:26.365Z,40.09
2023-04-13T02:14:53.522Z,40.04
2023-04-13T02:17:20.112Z,39.89
2023-04-13T02:19:47.145Z,40.20
2023-04-13T02:22:13.757Z,40.01
2023-04-13T02:24:40.594Z,39.92
2023-04-13T02:27:07.300Z,40.00
2023-04-13T02:29:34.519Z,40.13
2023-04-13T02:32:01.711Z,39.66
2023-04-13T02:34:28.549Z,39.99
2023-04-13T02:36:55.927Z,39.65
2023-04-13T02:39:22.524Z,39.78
2023-04-13T02:41:49.213Z,39.62
2023-04-13T02:44:16.029Z,39.72
2023-04-13T02:46:42.661Z,39.47
2023-04-13T02:49:09.374Z,39.37
2023-04-13T02:51:36.517Z,39.48
2023-04-13T02:54:03.523Z,39.34
2023-04-13T02:56:31.191Z,39.39
2023-04-13T02:58:58.381Z,39.35
2023-04-13T03:01:25.226Z,39.13
2023-04-13T03:03:51.918Z,39.40
2023-04-13T03:06:18.447Z,39.81
2023-04-13T03:08:45.090Z,39.20
2023-04-13T03:11:11.701Z,39.39
2023-04-13T03:13:38.358Z,39.87
2023-04-13T03:16:05.307Z,39.50
2023-04-13T03:18:32.394Z,39.43
2023-04-13T03:20:59.046Z,39.18
2023-04-13T03:23:25.632Z,39.68
2023-04-13T03:25:52.541Z,39.61
2023-04-13T03:28:19.727Z,39.68
2023-04-13T03:30:46.475Z,39.45
2023-04-13T03:33:13.160Z,39.34
2023-04-13T03:35:39.988Z,39.74
2023-04-13T03:38:06.734Z,39.44
2023-04-13T03:40:33.723Z,39.30
2023-04-13T03:43:00.729Z,39.23
2023-04-13T03:45:27.504Z,39.07
2023-04-13T03:47:54.146Z,39.64
2023-04-13T03:50:21.160Z,39.20
2023-04-13T03:52:47.749Z,39.03
2023-04-13T03:55:14.553Z,39.06
2023-04-13T03:57:41.263Z,38.91
2023-04-13T04:00:11.433Z,38.92
2023-04-13T04:02:38.355Z,39.57
2023-04-13T04:05:06.036Z,39.31
2023-04-13T04:07:32.749Z,39.14
2023-04-13T04:09:59.368Z,38.87
2023-04-13T04:12:26.086Z,39.39
2023-04-13T04:14:52.696Z,38.95
2023-04-13T04:17:19.319Z,38.61
2023-04-13T04:19:45.945Z,38.57
2023-04-13T04:22:14.136Z,38.50
2023-04-13T04:24:42.539Z,38.33
2023-04-13T04:27:09.288Z,38.41
2023-04-13T04:29:36.150Z,38.58
2023-04-13T04:32:05.876Z,38.77
2023-04-13T04:34:32.841Z,38.70
2023-04-13T04:37:03.237Z,38.57
2023-04-13T04:39:33.140Z,38.62
2023-04-13T04:42:05.954Z,38.45
2023-04-13T04:44:32.830Z,38.55
2023-04-13T04:47:00.444Z,38.69
2023-04-13T04:49:28.264Z,38.57
2023-04-13T04:51:55.969Z,38.35
2023-04-13T04:54:22.800Z,38.22
2023-04-13T04:56:49.818Z,38.25
2023-04-13T04:59:18.335Z,38.21
2023-04-13T05:01:45.561Z,38.00
2023-04-13T05:04:12.413Z,38.26
2023-04-13T05:06:41.711Z,37.95
2023-04-13T05:09:09.152Z,37.63
2023-04-13T05:11:36.722Z,38.10
2023-04-13T05:14:03.548Z,38.01
2023-04-13T05:16:32.039Z,37.69
2023-04-13T05:18:59.224Z,37.81
2023-04-13T05:21:27.254Z,37.79
2023-04-13T05:23:54.237Z,37.61
2023-04-13T05:26:21.150Z,37.69
2023-04-13T05:28:47.916Z,37.53
2023-04-13T05:31:15.971Z,37.52
2023-04-13T05:33:42.768Z,37.40
2023-04-13T05:36:09.967Z,37.89
2023-04-13T05:38:36.778Z,37.73
2023-04-13T05:41:03.718Z,37.45
2023-04-13T05:43:30.713Z,37.69
2023-04-13T05:45:57.502Z,38.20
2023-04-13T05:48:24.711Z,37.36
2023-04-13T05:50:51.585Z,37.71
2023-04-13T05:53:18.601Z,38.30
2023-04-13T05:55:48.011Z,37.55
2023-04-13T05:58:15.146Z,37.75
2023-04-13T06:00:43.274Z,37.52
2023-04-13T06:03:11.175Z,37.80
2023-04-13T06:05:39.027Z,37.38
2023-04-13T06:08:05.800Z,37.10
2023-04-13T06:10:32.596Z,37.51
2023-04-13T06:12:59.762Z,37.14
2023-04-13T06:15:26.633Z,37.18
2023-04-13T06:17:53.935Z,37.98
2023-04-13T06:20:21.558Z,37.60
2023-04-13T06:22:49.085Z,36.82
2023-04-13T06:25:16.800Z,37.33
2023-04-13T06:27:44.346Z,37.88
2023-04-13T06:30:12.328Z,37.97
2023-04-13T06:32:39.440Z,37.57
2023-04-13T06:35:06.748Z,36.54
2023-04-13T06:37:35.868Z,36.66
2023-04-13T06:40:12.457Z,37.65
2023-04-13T06:42:41.285Z,36.70
2023-04-13T06:45:09.622Z,36.75
2023-04-13T06:47:37.499Z,36.54
2023-04-13T06:50:06.860Z,36.33
2023-04-13T06:52:34.690Z,35.79
2023-04-13T06:55:02.524Z,35.73
2023-04-13T06:57:30.224Z,36.23
2023-04-13T06:59:56.971Z,36.64
2023-04-13T07:02:23.818Z,36.40
2023-04-13T07:04:50.858Z,35.95
2023-04-13T07:07:18.147Z,36.37
2023-04-13T07:09:45.090Z,36.77
2023-04-13T07:12:12.086Z,37.37
2023-04-13T07:14:40.965Z,36.43
2023-04-13T07:17:07.772Z,36.12
2023-04-13T07:19:35.928Z,36.38
2023-04-13T07:22:04.457Z,36.04
2023-04-13T07:24:34.424Z,36.07
2023-04-13T07:27:01.591Z,36.43
2023-04-13T07:29:28.382Z,36.68
2023-04-13T07:32:06.231Z,36.52
2023-04-13T07:34:32.982Z,36.29
2023-04-13T07:36:59.693Z,36.43
2023-04-13T07:39:26.595Z,36.45
2023-04-13T07:41:53.413Z,36.34
2023-04-13T07:44:20.269Z,36.52
2023-04-13T07:46:47.232Z,36.76
2023-04-13T07:49:13.992Z,36.64
2023-04-13T07:51:40.984Z,36.86
2023-04-13T07:54:08.209Z,38.01
2023-04-13T07:56:36.388Z,37.34
2023-04-13T07:59:03.888Z,37.59
2023-04-13T08:01:31.281Z,37.04
2023-04-13T08:03:58.245Z,37.39
2023-04-13T08:06:25.240Z,38.45
2023-04-13T08:08:52.865Z,39.26
2023-04-13T08:11:19.965Z,40.24
2023-04-13T08:13:46.765Z,41.96
2023-04-13T08:16:14.256Z,40.97
2023-04-13T08:18:41.022Z,40.15
2023-04-13T08:21:11.114Z,38.69
2023-04-13T08:23:41.357Z,39.71
2023-04-13T08:26:09.239Z,38.80
2023-04-13T08:28:36.024Z,40.40
2023-04-13T08:31:03.211Z,41.17
2023-04-13T08:33:30.001Z,41.31
2023-04-13T08:35:56.985Z,42.47
2023-04-13T08:38:23.744Z,42.90
2023-04-13T08:40:50.677Z,43.79
2023-04-13T08:43:19.838Z,44.77
2023-04-13T08:45:47.043Z,44.57
2023-04-13T08:48:15.852Z,43.07
2023-04-13T08:50:43.255Z,42.55
2023-04-13T08:53:10.187Z,43.60
2023-04-13T08:55:45.869Z,45.53
2023-04-13T08:58:13.894Z,46.59
2023-04-13T09:00:42.052Z,47.04
2023-04-13T09:03:14.094Z,48.70
2023-04-13T09:05:42.649Z,49.43
2023-04-13T09:08:11.576Z,51.51
2023-04-13T09:10:38.397Z,56.91
2023-04-13T09:13:05.591Z,60.94
2023-04-13T09:15:33.214Z,64.23
2023-04-13T09:18:07.954Z,67.51
2023-04-13T09:20:35.002Z,70.81
2023-04-13T09:23:13.846Z,76.47
2023-04-13T09:25:41.097Z,81.72
2023-04-13T09:28:15.312Z,83.87
2023-04-13T09:30:42.121Z,85.85
2023-04-13T09:33:11.657Z,90.10
2023-04-13T09:35:39.990Z,93.24
2023-04-13T09:38:07.597Z,100.00
2023-04-13T09:40:38.371Z,100.00
2023-04-13T09:43:08.126Z,100.00
2023-04-13T09:45:39.396Z,100.00
2023-04-13T09:48:18.765Z,100.00
2023-04-13T09:50:45.655Z,100.00
2023-04-13T09:53:12.501Z,100.00
2023-04-13T09:55:40.312Z,100.00
2023-04-13T09:58:15.249Z,100.00
2023-04-13T10:00:44.757Z,100.00
2023-04-13T10:03:13.893Z,100.00
2023-04-13T10:05:57.757Z,100.00
2023-04-13T10:08:36.836Z,100.00
2023-04-13T10:11:10.777Z,100.00
2023-04-13T10:13:45.866Z,100.00
2023-04-13T10:16:24.537Z,100.00
2023-04-13T10:19:03.795Z,100.00
2023-04-13T10:21:35.528Z,100.00
2023-04-13T10:24:11.604Z,100.00
2023-04-13T10:26:40.186Z,100.00
2023-04-13T10:29:08.538Z,100.00
2023-04-13T10:31:47.262Z,100.00
2023-04-13T10:34:31.580Z,100.00
2023-04-13T10:37:04.448Z,100.00
2023-04-13T10:39:33.661Z,100.00
2023-04-13T10:42:08.877Z,100.00
2023-04-13T10:44:45.872Z,100.00
2023-04-13T10:47:14.302Z,100.00
2023-04-13T10:49:41.952Z,100.00
2023-04-13T10:52:11.762Z,100.00
2023-04-13T10:54:40.041Z,100.00
2023-04-13T10:57:09.705Z,100.00
2023-04-13T10:59:58.895Z,100.00
2023-04-13T11:02:30.641Z,100.00
2023-04-13T11:04:57.902Z,100.00
2023-04-13T11:07:26.258Z,100.00
2023-04-13T11:12:29.930Z,100.00
2023-04-13T11:14:56.704Z,100.00
2023-04-13T11:17:23.751Z,100.00
2023-04-13T11:19:52.456Z,100.00
2023-04-13T11:22:23.011Z,100.00
2023-04-13T11:24:51.495Z,100.00
2023-04-13T11:27:23.353Z,100.00
2023-04-13T11:30:00.790Z,100.00
2023-04-13T11:32:28.189Z,100.00
2023-04-13T11:35:08.633Z,100.00
2023-04-13T11:37:39.932Z,100.00
2023-04-13T11:40:17.697Z,100.00
2023-04-13T11:42:47.095Z,100.00
2023-04-13T11:45:16.323Z,100.00
2023-04-13T11:47:44.497Z,100.00
2023-04-13T11:50:14.172Z,100.00
2023-04-13T11:52:43.576Z,100.00
2023-04-13T11:55:22.541Z,100.00
2023-04-13T11:57:52.595Z,100.00
2023-04-13T12:00:25.315Z,100.00
2023-04-13T12:05:26.610Z,100.00
2023-04-13T12:07:56.058Z,100.00
2023-04-13T12:10:37.323Z,100.00
2023-04-13T12:16:02.328Z,100.00
2023-04-13T12:18:43.292Z,100.00
2023-04-13T12:21:17.531Z,100.00
2023-04-13T12:23:59.607Z,100.00
2023-04-13T12:29:08.819Z,100.00
2023-04-13T12:31:37.364Z,100.00
2023-04-13T12:34:08.169Z,100.00
2023-04-13T12:36:36.593Z,100.00
2023-04-13T12:39:04.801Z,100.00
2023-04-13T12:41:32.380Z,100.00
2023-04-13T12:43:59.249Z,100.00
2023-04-13T12:46:26.906Z,100.00
2023-04-13T12:48:54.164Z,100.00
2023-04-13T12:51:20.953Z,100.00
2023-04-13T12:53:47.811Z,100.00
2023-04-13T12:56:14.550Z,100.00
2023-04-13T12:58:41.325Z,100.00
2023-04-13T13:01:08.812Z,100.00
2023-04-13T13:03:37.271Z,100.00
2023-04-13T13:06:06.311Z,100.00
2023-04-13T13:08:36.106Z,100.00
2023-04-13T13:11:06.038Z,100.00
2023-04-13T13:13:32.741Z,100.00
2023-04-13T13:15:59.540Z,100.00
2023-04-13T13:18:35.149Z,100.00
2023-04-13T13:21:10.000Z,100.00
2023-04-13T13:23:36.830Z,100.00
2023-04-13T13:26:22.162Z,100.00
2023-04-13T13:28:52.145Z,100.00
2023-04-13T13:31:19.716Z,100.00
2023-04-13T13:33:46.852Z,100.00
2023-04-13T13:36:14.855Z,100.00
2023-04-13T13:38:43.295Z,100.00
2023-04-13T13:41:10.538Z,100.00
2023-04-13T13:43:38.091Z,100.00
2023-04-13T13:46:08.520Z,100.00
2023-04-13T13:48:35.446Z,100.00
2023-04-13T13:51:03.341Z,100.00
2023-04-13T13:53:31.862Z,100.00
2023-04-13T13:55:58.591Z,100.00
2023-04-13T13:58:25.313Z,100.00
2023-04-13T14:00:52.045Z,100.00
2023-04-13T14:03:18.958Z,100.00
2023-04-13T14:05:46.135Z,100.00
2023-04-13T14:08:12.865Z,100.00
2023-04-13T14:10:39.804Z,100.00
2023-04-13T14:13:06.617Z,100.00
2023-04-13T14:15:33.459Z,100.00
2023-04-13T14:18:08.837Z,100.00
2023-04-13T14:20:39.223Z,100.00
2023-04-13T14:23:06.790Z,100.00
2023-04-13T14:25:33.630Z,100.00
2023-04-13T14:28:01.069Z,100.00
2023-04-13T14:30:28.484Z,100.00
2023-04-13T14:32:56.397Z,100.00
2023-04-13T14:35:23.462Z,100.00
2023-04-13T14:37:50.183Z,100.00
2023-04-13T14:40:17.232Z,100.00
2023-04-13T14:42:44.467Z,100.00
2023-04-13T14:45:12.581Z,100.00
2023-04-13T14:47:40.355Z,100.00
2023-04-13T14:50:08.580Z,100.00
2023-04-13T14:52:35.853Z,100.00
2023-04-13T14:55:02.770Z,100.00
2023-04-13T14:57:29.847Z,100.00
2023-04-13T14:59:56.739Z,100.00
2023-04-13T15:02:23.733Z,100.00
2023-04-13T15:04:50.782Z,100.00
2023-04-13T15:07:19.077Z,100.00
2023-04-13T15:09:45.818Z,100.00
2023-04-13T15:12:13.655Z,100.00
2023-04-13T15:14:41.130Z,100.00
2023-04-13T15:17:08.838Z,100.00
2023-04-13T15:19:35.646Z,100.00
2023-04-13T15:22:02.381Z,100.00
2023-04-13T15:24:29.086Z,100.00
2023-04-13T15:26:56.024Z,100.00
2023-04-13T15:29:23.639Z,100.00
2023-04-13T15:31:51.952Z,100.00
2023-04-13T15:34:18.832Z,100.00
2023-04-13T15:36:45.822Z,100.00
2023-04-13T15:39:12.799Z,100.00
2023-04-13T15:41:40.091Z,100.00
2023-04-13T15:44:06.904Z,100.00
2023-04-13T15:46:33.871Z,100.00
2023-04-13T15:49:01.264Z,100.00
2023-04-13T15:51:28.381Z,100.00
2023-04-13T15:53:55.170Z,100.00
2023-04-13T15:56:21.995Z,100.00
2023-04-13T15:58:49.543Z,100.00
2023-04-13T16:01:16.410Z,100.00
2023-04-13T16:03:43.469Z,100.00
2023-04-13T16:06:10.972Z,100.00
2023-04-13T16:08:38.049Z,100.00
2023-04-13T16:11:04.981Z,100.00
2023-04-13T16:13:47.304Z,100.00
2023-04-13T16:16:15.508Z,100.00
2023-04-13T16:18:42.396Z,100.00
2023-04-13T16:21:11.038Z,100.00
2023-04-13T16:23:38.567Z,100.00
2023-04-13T16:26:06.728Z,100.00
2023-04-13T16:28:34.659Z,100.00
2023-04-13T16:31:01.724Z,100.00
2023-04-13T16:33:29.921Z,100.00
2023-04-13T16:35:56.709Z,100.00
2023-04-13T16:38:24.080Z,100.00
2023-04-13T16:40:51.058Z,100.00
2023-04-13T16:43:17.853Z,100.00
2023-04-13T16:45:44.821Z,100.00
2023-04-13T16:48:11.669Z,100.00
2023-04-13T16:50:38.558Z,100.00
2023-04-13T17:06:51.179Z,100.00
2023-04-13T17:09:18.086Z,100.00
2023-04-13T17:11:45.037Z,100.00
2023-04-13T17:14:11.976Z,100.00
2023-04-13T17:16:38.907Z,100.00
2023-04-13T17:19:06.516Z,100.00
2023-04-13T17:21:33.476Z,100.00
2023-04-13T17:24:00.590Z,100.00
2023-04-13T17:26:27.777Z,100.00
2023-04-13T17:28:54.826Z,100.00
2023-04-13T17:31:22.205Z,100.00
2023-04-13T17:33:50.934Z,100.00
2023-04-13T17:36:18.169Z,100.00
2023-04-13T17:38:45.094Z,100.00
2023-04-13T17:41:12.037Z,100.00
2023-04-13T17:43:40.082Z,100.00
2023-04-13T17:46:08.697Z,100.00
2023-04-13T17:48:35.991Z,100.00
2023-04-13T17:51:03.018Z,100.00
2023-04-13T17:53:30.052Z,100.00
2023-04-13T17:55:56.950Z,100.00
2023-04-13T17:58:23.820Z,100.00
2023-04-13T18:00:51.826Z,100.00
2023-04-13T18:03:18.897Z,100.00
2023-04-13T18:05:46.370Z,100.00
2023-04-13T18:08:13.292Z,100.00
2023-04-13T18:10:40.248Z,100.00
2023-04-13T18:13:07.122Z,100.00
2023-04-13T18:15:34.053Z,100.00
2023-04-13T18:18:01.059Z,100.00
2023-04-13T18:20:28.075Z,100.00
2023-04-13T18:22:55.071Z,100.00
2023-04-13T18:25:22.072Z,100.00
2023-04-13T18:27:49.207Z,100.00
2023-04-13T18:30:16.403Z,100.00
2023-04-13T18:32:43.385Z,100.00
2023-04-13T18:35:13.075Z,100.00
2023-04-13T18:37:39.804Z,100.00
2023-04-13T18:40:07.332Z,100.00
2023-04-13T18:42:34.089Z,100.00
2023-04-13T18:45:00.862Z,100.00
2023-04-13T18:47:27.691Z,100.00
2023-04-13T18:49:54.515Z,100.00
2023-04-13T18:52:21.236Z,100.00
2023-04-13T18:54:47.996Z,100.00
2023-04-13T18:57:14.743Z,100.00
2023-04-13T18:59:41.475Z,100.00
2023-04-13T19:02:08.355Z,100.00
2023-04-13T19:04:35.499Z,100.00
2023-04-13T19:07:02.664Z,100.00
2023-04-13T19:09:31.381Z,100.00
2023-04-13T19:12:01.447Z,100.00
2023-04-13T19:14:28.276Z,100.00
2023-04-13T19:16:55.843Z,100.00
2023-04-13T19:19:22.954Z,100.00
2023-04-13T19:21:53.468Z,100.00
2023-04-13T19:24:20.848Z,100.00
2023-04-13T19:26:47.686Z,100.00
2023-04-13T19:29:14.987Z,100.00
2023-04-13T19:31:43.547Z,100.00
2023-04-13T19:34:10.372Z,100.00
2023-04-13T19:36:37.664Z,100.00
2023-04-13T19:39:08.452Z,100.00
2023-04-13T19:41:36.193Z,100.00
2023-04-13T19:44:04.211Z,100.00
2023-04-13T19:46:33.019Z,100.00
2023-04-13T19:49:02.191Z,100.00
2023-04-13T19:51:29.784Z,100.00
2023-04-13T19:54:02.320Z,100.00
2023-04-13T19:56:30.921Z,100.00
2023-04-13T19:58:58.422Z,100.00
2023-04-13T20:01:28.212Z,100.00
2023-04-13T20:03:55.254Z,100.00
2023-04-13T20:06:22.647Z,100.00
2023-04-13T20:08:49.683Z,100.00
2023-04-13T20:11:18.903Z,100.00
2023-04-13T20:13:46.461Z,100.00
2023-04-13T20:16:13.320Z,100.00
2023-04-13T20:18:40.081Z,100.00
2023-04-13T20:21:08.405Z,100.00
2023-04-13T20:23:39.496Z,100.00
2023-04-13T20:26:06.464Z,100.00
2023-04-13T20:28:33.594Z,100.00
2023-04-13T20:31:00.496Z,100.00
2023-04-13T20:33:27.415Z,100.00
2023-04-13T20:35:55.170Z,100.00
2023-04-13T20:38:25.458Z,100.00
2023-04-13T20:40:52.347Z,100.00
2023-04-13T20:43:22.229Z,100.00
2023-04-13T20:45:49.981Z,100.00
2023-04-13T20:50:49.091Z,100.00
2023-04-13T20:53:17.802Z,100.00
2023-04-13T20:55:44.932Z,100.00
2023-04-13T20:58:11.904Z,100.00
2023-04-13T21:00:38.757Z,100.00
2023-04-13T21:03:09.347Z,100.00
2023-04-13T21:05:36.990Z,100.00
2023-04-13T21:08:04.044Z,100.00
2023-04-13T21:10:33.236Z,100.00
2023-04-13T21:13:02.756Z,100.00
2023-04-13T21:15:29.790Z,100.00
2023-04-13T21:17:57.326Z,100.00
2023-04-13T21:20:24.217Z,100.00
2023-04-13T21:22:50.993Z,100.00
2023-04-13T21:25:17.708Z,100.00
2023-04-13T21:27:44.524Z,100.00
2023-04-13T21:30:11.446Z,100.00
2023-04-13T21:32:38.476Z,100.00
2023-04-13T21:35:08.342Z,100.00
2023-04-13T21:37:35.260Z,100.00
2023-04-13T21:40:02.062Z,100.00
2023-04-13T21:42:28.782Z,100.00
2023-04-13T21:44:57.210Z,100.00
2023-04-13T21:47:24.067Z,100.00
2023-04-13T21:49:50.920Z,100.00
2023-04-13T21:52:17.716Z,100.00
2023-04-13T21:54:44.635Z,100.00
2023-04-13T21:57:11.949Z,100.00
2023-04-13T21:59:38.741Z,100.00
2023-04-13T22:02:05.785Z,100.00
2023-04-13T22:04:32.957Z,100.00
2023-04-13T22:06:59.922Z,100.00
2023-04-13T22:09:27.519Z,100.00
2023-04-13T22:11:54.601Z,100.00
2023-04-13T22:14:24.683Z,100.00
2023-04-13T22:16:51.529Z,100.00
2023-04-13T22:19:18.277Z,100.00
2023-04-13T22:21:45.097Z,100.00
2023-04-13T22:24:13.000Z,100.00
2023-04-13T22:26:39.834Z,100.00
2023-04-13T22:29:07.562Z,100.00
2023-04-13T22:31:36.538Z,100.00
2023-04-13T22:34:03.666Z,100.00
2023-04-13T22:36:33.086Z,100.00
2023-04-13T22:39:00.251Z,100.00
2023-04-13T22:41:27.571Z,100.00
2023-04-13T22:43:54.434Z,100.00
2023-04-13T22:46:21.439Z,100.00
2023-04-13T22:48:48.676Z,100.00
2023-04-13T22:51:15.493Z,100.00
2023-04-13T22:53:42.277Z,100.00
2023-04-13T22:56:09.206Z,100.00
2023-04-13T22:58:36.238Z,100.00
2023-04-13T23:01:03.592Z,100.00
2023-04-13T23:03:30.767Z,100.00
2023-04-13T23:05:57.801Z,100.00
2023-04-13T23:08:24.593Z,100.00
2023-04-13T23:10:52.505Z,100.00
2023-04-13T23:13:19.819Z,100.00
2023-04-13T23:15:46.790Z,100.00
2023-04-13T23:18:13.742Z,100.00
2023-04-13T23:20:40.693Z,100.00
2023-04-13T23:23:07.488Z,100.00
2023-04-13T23:25:34.436Z,100.00
2023-04-13T23:28:01.271Z,100.00
2023-04-13T23:30:28.057Z,100.00
2023-04-13T23:32:54.836Z,100.00
2023-04-13T23:35:21.702Z,100.00
2023-04-13T23:37:48.677Z,100.00
2023-04-13T23:40:15.539Z,100.00
2023-04-13T23:42:42.409Z,100.00
2023-04-13T23:45:09.480Z,100.00
2023-04-13T23:47:36.404Z,100.00
2023-04-13T23:50:06.435Z,100.00
2023-04-13T23:52:33.560Z,100.00
2023-04-13T23:55:00.645Z,100.00
2023-04-13T23:57:27.825Z,100.00
2023-04-13T23:59:58.007Z,100.00
